sensor_id;sensor_type;location;lat;lon;timestamp;P1;durP1;ratioP1;P2;durP2;ratioP2
33952;SDS011;20231;42.710;23.280;2023-03-14T00:02:15;30.05;;;15.00;;
33952;SDS011;20231;42.710;23.280;2023-03-14T00:04:41;28.27;;;15.73;;
33952;SDS011;20231;42.710;23.280;2023-03-14T00:07:07;25.30;;;14.52;;
33952;SDS011;20231;42.710;23.280;2023-03-14T00:09:35;26.45;;;14.07;;
33952;SDS011;20231;42.710;23.280;2023-03-14T00:12:00;27.48;;;14.57;;
33952;SDS011;20231;42.710;23.280;2023-03-14T00:14:28;29.25;;;15.18;;
33952;SDS011;20231;42.710;23.280;2023-03-14T00:16:56;25.40;;;14.52;;
33952;SDS011;20231;42.710;23.280;2023-03-14T00:19:22;24.40;;;12.68;;
33952;SDS011;20231;42.710;23.280;2023-03-14T00:21:52;20.73;;;10.30;;
33952;SDS011;20231;42.710;23.280;2023-03-14T00:24:24;15.90;;;9.60;;
33952;SDS011;20231;42.710;23.280;2023-03-14T00:26:50;19.95;;;9.20;;
33952;SDS011;20231;42.710;23.280;2023-03-14T00:29:16;16.55;;;9.75;;
33952;SDS011;20231;42.710;23.280;2023-03-14T00:31:47;19.58;;;9.18;;
33952;SDS011;20231;42.710;23.280;2023-03-14T00:34:16;14.52;;;7.25;;
33952;SDS011;20231;42.710;23.280;2023-03-14T00:36:41;14.93;;;7.75;;
33952;SDS011;20231;42.710;23.280;2023-03-14T00:39:07;17.70;;;8.93;;
33952;SDS011;20231;42.710;23.280;2023-03-14T00:41:34;16.27;;;9.13;;
33952;SDS011;20231;42.710;23.280;2023-03-14T00:44:07;18.92;;;9.70;;
33952;SDS011;20231;42.710;23.280;2023-03-14T00:46:35;14.30;;;9.10;;
33952;SDS011;20231;42.710;23.280;2023-03-14T00:49:01;15.05;;;8.18;;
33952;SDS011;20231;42.710;23.280;2023-03-14T00:51:26;19.67;;;10.15;;
33952;SDS011;20231;42.710;23.280;2023-03-14T00:53:52;14.98;;;8.73;;
33952;SDS011;20231;42.710;23.280;2023-03-14T00:56:17;18.05;;;8.95;;
33952;SDS011;20231;42.710;23.280;2023-03-14T00:58:43;22.10;;;11.45;;
33952;SDS011;20231;42.710;23.280;2023-03-14T01:01:09;19.42;;;11.43;;
33952;SDS011;20231;42.710;23.280;2023-03-14T01:03:38;24.13;;;12.13;;
33952;SDS011;20231;42.710;23.280;2023-03-14T01:06:07;14.68;;;8.52;;
33952;SDS011;20231;42.710;23.280;2023-03-14T01:08:33;19.58;;;8.88;;
33952;SDS011;20231;42.710;23.280;2023-03-14T01:10:58;18.20;;;9.93;;
33952;SDS011;20231;42.710;23.280;2023-03-14T01:13:26;21.08;;;11.60;;
33952;SDS011;20231;42.710;23.280;2023-03-14T01:15:51;18.45;;;10.50;;
33952;SDS011;20231;42.710;23.280;2023-03-14T01:18:17;21.98;;;11.68;;
33952;SDS011;20231;42.710;23.280;2023-03-14T01:20:42;22.10;;;12.05;;
33952;SDS011;20231;42.710;23.280;2023-03-14T01:23:08;20.65;;;11.20;;
33952;SDS011;20231;42.710;23.280;2023-03-14T01:25:33;22.20;;;11.43;;
33952;SDS011;20231;42.710;23.280;2023-03-14T01:27:58;26.08;;;12.80;;
33952;SDS011;20231;42.710;23.280;2023-03-14T01:30:25;22.50;;;12.10;;
33952;SDS011;20231;42.710;23.280;2023-03-14T01:32:51;22.38;;;11.90;;
33952;SDS011;20231;42.710;23.280;2023-03-14T01:35:16;22.20;;;12.15;;
33952;SDS011;20231;42.710;23.280;2023-03-14T01:37:41;21.95;;;11.80;;
33952;SDS011;20231;42.710;23.280;2023-03-14T01:40:08;21.38;;;12.20;;
33952;SDS011;20231;42.710;23.280;2023-03-14T01:42:35;22.67;;;11.32;;
33952;SDS011;20231;42.710;23.280;2023-03-14T01:45:01;22.35;;;11.68;;
33952;SDS011;20231;42.710;23.280;2023-03-14T01:47:27;29.70;;;12.40;;
33952;SDS011;20231;42.710;23.280;2023-03-14T01:50:03;24.20;;;12.55;;
33952;SDS011;20231;42.710;23.280;2023-03-14T01:52:39;21.90;;;12.00;;
33952;SDS011;20231;42.710;23.280;2023-03-14T01:55:19;22.88;;;12.10;;
33952;SDS011;20231;42.710;23.280;2023-03-14T01:57:49;20.98;;;11.40;;
33952;SDS011;20231;42.710;23.280;2023-03-14T02:00:23;18.15;;;10.57;;
33952;SDS011;20231;42.710;23.280;2023-03-14T02:02:50;23.67;;;12.05;;
33952;SDS011;20231;42.710;23.280;2023-03-14T02:05:22;21.92;;;11.63;;
33952;SDS011;20231;42.710;23.280;2023-03-14T02:07:54;20.90;;;11.13;;
33952;SDS011;20231;42.710;23.280;2023-03-14T02:10:25;19.75;;;11.65;;
33952;SDS011;20231;42.710;23.280;2023-03-14T02:12:54;21.27;;;11.02;;
33952;SDS011;20231;42.710;23.280;2023-03-14T02:15:22;19.98;;;11.35;;
33952;SDS011;20231;42.710;23.280;2023-03-14T02:17:48;24.15;;;11.60;;
33952;SDS011;20231;42.710;23.280;2023-03-14T02:20:17;19.58;;;11.48;;
33952;SDS011;20231;42.710;23.280;2023-03-14T02:23:10;18.35;;;11.13;;
33952;SDS011;20231;42.710;23.280;2023-03-14T02:28:21;32.10;;;14.90;;
33952;SDS011;20231;42.710;23.280;2023-03-14T02:30:48;29.90;;;12.85;;
33952;SDS011;20231;42.710;23.280;2023-03-14T02:33:15;19.73;;;11.55;;
33952;SDS011;20231;42.710;23.280;2023-03-14T02:35:49;23.80;;;12.30;;
33952;SDS011;20231;42.710;23.280;2023-03-14T02:40:55;23.67;;;11.77;;
33952;SDS011;20231;42.710;23.280;2023-03-14T02:43:21;22.88;;;13.10;;
33952;SDS011;20231;42.710;23.280;2023-03-14T02:45:54;19.30;;;12.07;;
33952;SDS011;20231;42.710;23.280;2023-03-14T02:48:21;20.23;;;12.10;;
33952;SDS011;20231;42.710;23.280;2023-03-14T02:50:50;24.23;;;12.35;;
33952;SDS011;20231;42.710;23.280;2023-03-14T02:53:21;21.30;;;12.70;;
33952;SDS011;20231;42.710;23.280;2023-03-14T02:55:59;20.23;;;11.45;;
33952;SDS011;20231;42.710;23.280;2023-03-14T02:59:03;19.10;;;11.25;;
33952;SDS011;20231;42.710;23.280;2023-03-14T03:01:53;21.42;;;11.38;;
33952;SDS011;20231;42.710;23.280;2023-03-14T03:04:19;28.05;;;12.13;;
33952;SDS011;20231;42.710;23.280;2023-03-14T03:09:36;23.45;;;11.65;;
33952;SDS011;20231;42.710;23.280;2023-03-14T03:12:02;25.77;;;11.50;;
33952;SDS011;20231;42.710;23.280;2023-03-14T03:14:29;26.58;;;12.52;;
33952;SDS011;20231;42.710;23.280;2023-03-14T03:16:55;22.70;;;12.70;;
33952;SDS011;20231;42.710;23.280;2023-03-14T03:19:21;22.45;;;11.30;;
33952;SDS011;20231;42.710;23.280;2023-03-14T03:21:46;21.63;;;11.20;;
33952;SDS011;20231;42.710;23.280;2023-03-14T03:24:12;21.77;;;12.25;;
33952;SDS011;20231;42.710;23.280;2023-03-14T03:26:37;22.70;;;12.48;;
33952;SDS011;20231;42.710;23.280;2023-03-14T03:29:03;21.77;;;11.60;;
33952;SDS011;20231;42.710;23.280;2023-03-14T03:31:28;23.20;;;11.30;;
33952;SDS011;20231;42.710;23.280;2023-03-14T03:33:54;20.38;;;12.18;;
33952;SDS011;20231;42.710;23.280;2023-03-14T03:36:23;24.98;;;12.65;;
33952;SDS011;20231;42.710;23.280;2023-03-14T03:38:49;22.65;;;12.50;;
33952;SDS011;20231;42.710;23.280;2023-03-14T03:41:14;20.55;;;11.93;;
33952;SDS011;20231;42.710;23.280;2023-03-14T03:43:41;19.00;;;11.10;;
33952;SDS011;20231;42.710;23.280;2023-03-14T03:46:07;24.75;;;13.05;;
33952;SDS011;20231;42.710;23.280;2023-03-14T03:48:33;23.25;;;12.88;;
33952;SDS011;20231;42.710;23.280;2023-03-14T03:50:59;22.05;;;12.05;;
33952;SDS011;20231;42.710;23.280;2023-03-14T03:53:25;23.23;;;12.65;;
33952;SDS011;20231;42.710;23.280;2023-03-14T03:55:51;25.95;;;12.38;;
33952;SDS011;20231;42.710;23.280;2023-03-14T03:58:17;23.83;;;11.88;;
33952;SDS011;20231;42.710;23.280;2023-03-14T04:00:43;22.60;;;13.40;;
33952;SDS011;20231;42.710;23.280;2023-03-14T04:03:08;20.98;;;12.05;;
33952;SDS011;20231;42.710;23.280;2023-03-14T04:05:33;19.55;;;11.35;;
33952;SDS011;20231;42.710;23.280;2023-03-14T04:08:11;24.58;;;11.63;;
33952;SDS011;20231;42.710;23.280;2023-03-14T04:13:36;21.92;;;11.40;;
33952;SDS011;20231;42.710;23.280;2023-03-14T04:19:39;26.02;;;11.77;;
33952;SDS011;20231;42.710;23.280;2023-03-14T04:25:10;19.65;;;11.18;;
33952;SDS011;20231;42.710;23.280;2023-03-14T04:27:36;17.85;;;10.55;;
33952;SDS011;20231;42.710;23.280;2023-03-14T04:30:01;22.25;;;10.82;;
33952;SDS011;20231;42.710;23.280;2023-03-14T04:32:33;25.55;;;11.25;;
33952;SDS011;20231;42.710;23.280;2023-03-14T04:38:09;23.42;;;12.02;;
33952;SDS011;20231;42.710;23.280;2023-03-14T04:40:39;26.95;;;12.10;;
33952;SDS011;20231;42.710;23.280;2023-03-14T04:43:06;19.65;;;11.60;;
33952;SDS011;20231;42.710;23.280;2023-03-14T04:45:33;21.35;;;12.65;;
33952;SDS011;20231;42.710;23.280;2023-03-14T04:47:58;29.23;;;12.43;;
33952;SDS011;20231;42.710;23.280;2023-03-14T04:50:24;20.98;;;11.60;;
33952;SDS011;20231;42.710;23.280;2023-03-14T04:52:49;20.50;;;12.32;;
33952;SDS011;20231;42.710;23.280;2023-03-14T04:55:15;22.50;;;12.25;;
33952;SDS011;20231;42.710;23.280;2023-03-14T04:57:40;23.63;;;13.95;;
33952;SDS011;20231;42.710;23.280;2023-03-14T05:00:06;23.88;;;11.57;;
33952;SDS011;20231;42.710;23.280;2023-03-14T05:02:32;21.17;;;11.32;;
33952;SDS011;20231;42.710;23.280;2023-03-14T05:04:58;22.00;;;11.50;;
33952;SDS011;20231;42.710;23.280;2023-03-14T05:07:23;25.80;;;12.05;;
33952;SDS011;20231;42.710;23.280;2023-03-14T05:09:49;22.55;;;12.38;;
33952;SDS011;20231;42.710;23.280;2023-03-14T05:12:14;25.70;;;12.30;;
33952;SDS011;20231;42.710;23.280;2023-03-14T05:14:39;25.42;;;14.07;;
33952;SDS011;20231;42.710;23.280;2023-03-14T05:17:05;29.00;;;13.95;;
33952;SDS011;20231;42.710;23.280;2023-03-14T05:19:31;24.17;;;12.55;;
33952;SDS011;20231;42.710;23.280;2023-03-14T05:21:56;23.48;;;12.82;;
33952;SDS011;20231;42.710;23.280;2023-03-14T05:24:22;22.75;;;12.85;;
33952;SDS011;20231;42.710;23.280;2023-03-14T05:26:47;26.98;;;13.00;;
33952;SDS011;20231;42.710;23.280;2023-03-14T05:29:13;19.95;;;10.98;;
33952;SDS011;20231;42.710;23.280;2023-03-14T05:31:38;20.65;;;10.73;;
33952;SDS011;20231;42.710;23.280;2023-03-14T05:34:04;25.75;;;10.93;;
33952;SDS011;20231;42.710;23.280;2023-03-14T05:36:29;18.73;;;11.65;;
33952;SDS011;20231;42.710;23.280;2023-03-14T05:38:55;22.90;;;11.90;;
33952;SDS011;20231;42.710;23.280;2023-03-14T05:41:20;19.88;;;11.73;;
33952;SDS011;20231;42.710;23.280;2023-03-14T05:43:46;20.05;;;11.60;;
33952;SDS011;20231;42.710;23.280;2023-03-14T05:46:11;30.08;;;11.55;;
33952;SDS011;20231;42.710;23.280;2023-03-14T05:48:55;26.77;;;12.43;;
33952;SDS011;20231;42.710;23.280;2023-03-14T05:51:22;23.25;;;11.75;;
33952;SDS011;20231;42.710;23.280;2023-03-14T05:53:48;20.23;;;11.82;;
33952;SDS011;20231;42.710;23.280;2023-03-14T05:56:13;21.17;;;12.63;;
33952;SDS011;20231;42.710;23.280;2023-03-14T05:58:38;21.30;;;12.30;;
33952;SDS011;20231;42.710;23.280;2023-03-14T06:01:04;25.52;;;12.73;;
33952;SDS011;20231;42.710;23.280;2023-03-14T06:03:31;24.67;;;11.85;;
33952;SDS011;20231;42.710;23.280;2023-03-14T06:05:57;20.13;;;11.77;;
33952;SDS011;20231;42.710;23.280;2023-03-14T06:08:22;25.77;;;12.35;;
33952;SDS011;20231;42.710;23.280;2023-03-14T06:10:48;16.92;;;9.68;;
33952;SDS011;20231;42.710;23.280;2023-03-14T06:13:13;27.40;;;13.25;;
33952;SDS011;20231;42.710;23.280;2023-03-14T06:15:40;20.85;;;12.07;;
33952;SDS011;20231;42.710;23.280;2023-03-14T06:18:06;23.08;;;12.25;;
33952;SDS011;20231;42.710;23.280;2023-03-14T06:20:31;22.02;;;12.70;;
33952;SDS011;20231;42.710;23.280;2023-03-14T06:22:58;23.40;;;13.18;;
33952;SDS011;20231;42.710;23.280;2023-03-14T06:25:23;32.63;;;12.70;;
33952;SDS011;20231;42.710;23.280;2023-03-14T06:27:49;55.63;;;22.88;;
33952;SDS011;20231;42.710;23.280;2023-03-14T06:30:14;63.20;;;25.05;;
33952;SDS011;20231;42.710;23.280;2023-03-14T06:32:40;36.70;;;15.77;;
33952;SDS011;20231;42.710;23.280;2023-03-14T06:35:05;20.88;;;11.85;;
33952;SDS011;20231;42.710;23.280;2023-03-14T06:37:31;24.98;;;12.27;;
33952;SDS011;20231;42.710;23.280;2023-03-14T06:39:56;22.60;;;13.15;;
33952;SDS011;20231;42.710;23.280;2023-03-14T06:42:22;28.38;;;13.10;;
33952;SDS011;20231;42.710;23.280;2023-03-14T06:44:47;26.83;;;14.77;;
33952;SDS011;20231;42.710;23.280;2023-03-14T06:47:13;28.23;;;14.88;;
33952;SDS011;20231;42.710;23.280;2023-03-14T06:49:39;26.58;;;15.07;;
33952;SDS011;20231;42.710;23.280;2023-03-14T06:52:04;35.80;;;15.35;;
33952;SDS011;20231;42.710;23.280;2023-03-14T06:54:29;25.67;;;12.52;;
33952;SDS011;20231;42.710;23.280;2023-03-14T06:56:55;26.83;;;13.23;;
33952;SDS011;20231;42.710;23.280;2023-03-14T06:59:20;30.85;;;14.73;;
33952;SDS011;20231;42.710;23.280;2023-03-14T07:01:46;26.50;;;13.80;;
33952;SDS011;20231;42.710;23.280;2023-03-14T07:04:13;29.08;;;13.57;;
33952;SDS011;20231;42.710;23.280;2023-03-14T07:06:38;25.30;;;13.40;;
33952;SDS011;20231;42.710;23.280;2023-03-14T07:09:04;25.70;;;14.35;;
33952;SDS011;20231;42.710;23.280;2023-03-14T07:11:30;26.92;;;14.55;;
33952;SDS011;20231;42.710;23.280;2023-03-14T07:13:56;29.23;;;14.40;;
33952;SDS011;20231;42.710;23.280;2023-03-14T07:16:21;30.83;;;12.68;;
33952;SDS011;20231;42.710;23.280;2023-03-14T07:18:46;32.78;;;14.05;;
33952;SDS011;20231;42.710;23.280;2023-03-14T07:21:12;32.15;;;14.88;;
33952;SDS011;20231;42.710;23.280;2023-03-14T07:23:38;25.85;;;14.23;;
33952;SDS011;20231;42.710;23.280;2023-03-14T07:26:04;28.63;;;14.60;;
33952;SDS011;20231;42.710;23.280;2023-03-14T07:28:29;36.88;;;15.93;;
33952;SDS011;20231;42.710;23.280;2023-03-14T07:30:55;31.58;;;16.45;;
33952;SDS011;20231;42.710;23.280;2023-03-14T07:33:21;32.30;;;16.52;;
33952;SDS011;20231;42.710;23.280;2023-03-14T07:35:46;31.10;;;15.52;;
33952;SDS011;20231;42.710;23.280;2023-03-14T07:38:13;30.48;;;16.88;;
33952;SDS011;20231;42.710;23.280;2023-03-14T07:40:39;31.42;;;16.30;;
33952;SDS011;20231;42.710;23.280;2023-03-14T07:43:04;29.58;;;15.55;;
33952;SDS011;20231;42.710;23.280;2023-03-14T07:45:29;38.75;;;16.63;;
33952;SDS011;20231;42.710;23.280;2023-03-14T07:47:55;27.67;;;15.88;;
33952;SDS011;20231;42.710;23.280;2023-03-14T07:50:22;41.72;;;17.35;;
33952;SDS011;20231;42.710;23.280;2023-03-14T07:52:49;27.23;;;15.98;;
33952;SDS011;20231;42.710;23.280;2023-03-14T07:55:14;29.52;;;14.73;;
33952;SDS011;20231;42.710;23.280;2023-03-14T07:57:40;28.30;;;15.35;;
33952;SDS011;20231;42.710;23.280;2023-03-14T08:00:06;27.35;;;15.25;;
33952;SDS011;20231;42.710;23.280;2023-03-14T08:02:32;30.70;;;15.20;;
33952;SDS011;20231;42.710;23.280;2023-03-14T08:04:58;32.67;;;15.32;;
33952;SDS011;20231;42.710;23.280;2023-03-14T08:07:23;33.20;;;16.63;;
33952;SDS011;20231;42.710;23.280;2023-03-14T08:09:49;28.02;;;16.27;;
33952;SDS011;20231;42.710;23.280;2023-03-14T08:12:14;44.30;;;17.33;;
33952;SDS011;20231;42.710;23.280;2023-03-14T08:14:40;31.08;;;14.80;;
33952;SDS011;20231;42.710;23.280;2023-03-14T08:17:06;27.45;;;15.98;;
33952;SDS011;20231;42.710;23.280;2023-03-14T08:19:33;27.92;;;14.95;;
33952;SDS011;20231;42.710;23.280;2023-03-14T08:21:58;27.88;;;15.02;;
33952;SDS011;20231;42.710;23.280;2023-03-14T08:24:23;31.95;;;14.77;;
33952;SDS011;20231;42.710;23.280;2023-03-14T08:26:49;32.85;;;15.98;;
33952;SDS011;20231;42.710;23.280;2023-03-14T08:29:14;26.27;;;15.15;;
33952;SDS011;20231;42.710;23.280;2023-03-14T08:31:40;27.20;;;15.38;;
33952;SDS011;20231;42.710;23.280;2023-03-14T08:34:05;32.22;;;15.77;;
33952;SDS011;20231;42.710;23.280;2023-03-14T08:36:31;28.73;;;15.05;;
33952;SDS011;20231;42.710;23.280;2023-03-14T08:38:57;27.73;;;14.98;;
33952;SDS011;20231;42.710;23.280;2023-03-14T08:41:22;30.75;;;15.00;;
33952;SDS011;20231;42.710;23.280;2023-03-14T08:43:48;36.00;;;15.32;;
33952;SDS011;20231;42.710;23.280;2023-03-14T08:46:13;30.60;;;13.63;;
33952;SDS011;20231;42.710;23.280;2023-03-14T08:48:39;19.33;;;9.32;;
33952;SDS011;20231;42.710;23.280;2023-03-14T08:51:11;17.30;;;9.70;;
33952;SDS011;20231;42.710;23.280;2023-03-14T08:53:39;20.08;;;8.68;;
33952;SDS011;20231;42.710;23.280;2023-03-14T08:56:05;17.73;;;8.13;;
33952;SDS011;20231;42.710;23.280;2023-03-14T08:58:31;23.50;;;8.48;;
33952;SDS011;20231;42.710;23.280;2023-03-14T09:00:57;13.85;;;6.47;;
33952;SDS011;20231;42.710;23.280;2023-03-14T09:03:23;12.68;;;7.68;;
33952;SDS011;20231;42.710;23.280;2023-03-14T09:05:50;15.40;;;8.02;;
33952;SDS011;20231;42.710;23.280;2023-03-14T09:08:16;12.95;;;7.35;;
33952;SDS011;20231;42.710;23.280;2023-03-14T09:10:41;12.75;;;7.05;;
33952;SDS011;20231;42.710;23.280;2023-03-14T09:13:06;13.93;;;7.28;;
33952;SDS011;20231;42.710;23.280;2023-03-14T09:15:32;10.80;;;6.82;;
33952;SDS011;20231;42.710;23.280;2023-03-14T09:17:58;19.02;;;7.75;;
33952;SDS011;20231;42.710;23.280;2023-03-14T09:20:23;12.48;;;7.50;;
33952;SDS011;20231;42.710;23.280;2023-03-14T09:22:49;25.52;;;8.80;;
33952;SDS011;20231;42.710;23.280;2023-03-14T09:25:14;16.77;;;7.78;;
33952;SDS011;20231;42.710;23.280;2023-03-14T09:27:40;11.52;;;7.38;;
33952;SDS011;20231;42.710;23.280;2023-03-14T09:30:05;9.68;;;6.50;;
33952;SDS011;20231;42.710;23.280;2023-03-14T09:32:31;10.10;;;6.78;;
33952;SDS011;20231;42.710;23.280;2023-03-14T09:34:57;14.02;;;7.43;;
33952;SDS011;20231;42.710;23.280;2023-03-14T09:37:23;14.27;;;6.63;;
33952;SDS011;20231;42.710;23.280;2023-03-14T09:39:48;11.20;;;6.38;;
33952;SDS011;20231;42.710;23.280;2023-03-14T09:42:17;13.45;;;6.85;;
33952;SDS011;20231;42.710;23.280;2023-03-14T09:44:53;11.73;;;6.10;;
33952;SDS011;20231;42.710;23.280;2023-03-14T09:47:29;11.48;;;6.03;;
33952;SDS011;20231;42.710;23.280;2023-03-14T09:50:01;11.10;;;5.60;;
33952;SDS011;20231;42.710;23.280;2023-03-14T09:52:28;9.35;;;6.38;;
33952;SDS011;20231;42.710;23.280;2023-03-14T09:55:02;10.05;;;6.32;;
33952;SDS011;20231;42.710;23.280;2023-03-14T09:57:29;9.88;;;6.18;;
33952;SDS011;20231;42.710;23.280;2023-03-14T10:00:05;17.08;;;7.43;;
33952;SDS011;20231;42.710;23.280;2023-03-14T10:02:40;14.27;;;6.72;;
33952;SDS011;20231;42.710;23.280;2023-03-14T10:05:13;11.95;;;6.68;;
33952;SDS011;20231;42.710;23.280;2023-03-14T10:07:40;14.57;;;7.07;;
33952;SDS011;20231;42.710;23.280;2023-03-14T10:10:13;17.20;;;7.65;;
33952;SDS011;20231;42.710;23.280;2023-03-14T10:12:44;13.10;;;7.30;;
33952;SDS011;20231;42.710;23.280;2023-03-14T10:15:12;13.27;;;7.35;;
33952;SDS011;20231;42.710;23.280;2023-03-14T10:17:44;14.90;;;7.43;;
33952;SDS011;20231;42.710;23.280;2023-03-14T10:21:02;10.60;;;5.95;;
33952;SDS011;20231;42.710;23.280;2023-03-14T10:25:45;15.82;;;6.55;;
33952;SDS011;20231;42.710;23.280;2023-03-14T10:28:26;16.55;;;6.35;;
33952;SDS011;20231;42.710;23.280;2023-03-14T10:30:54;11.07;;;5.82;;
33952;SDS011;20231;42.710;23.280;2023-03-14T10:33:21;12.90;;;5.78;;
33952;SDS011;20231;42.710;23.280;2023-03-14T10:35:54;28.60;;;10.20;;
33952;SDS011;20231;42.710;23.280;2023-03-14T10:38:23;15.13;;;6.15;;
33952;SDS011;20231;42.710;23.280;2023-03-14T10:40:52;12.48;;;5.43;;
33952;SDS011;20231;42.710;23.280;2023-03-14T10:43:22;8.95;;;5.35;;
33952;SDS011;20231;42.710;23.280;2023-03-14T10:45:56;10.77;;;4.60;;
33952;SDS011;20231;42.710;23.280;2023-03-14T10:50:55;15.68;;;6.47;;
33952;SDS011;20231;42.710;23.280;2023-03-14T10:53:33;13.43;;;7.60;;
33952;SDS011;20231;42.710;23.280;2023-03-14T10:56:06;18.38;;;7.78;;
33952;SDS011;20231;42.710;23.280;2023-03-14T10:58:39;15.55;;;7.60;;
33952;SDS011;20231;42.710;23.280;2023-03-14T11:09:39;12.15;;;7.03;;
33952;SDS011;20231;42.710;23.280;2023-03-14T11:12:17;12.45;;;7.05;;
33952;SDS011;20231;42.710;23.280;2023-03-14T11:14:59;13.35;;;6.97;;
33952;SDS011;20231;42.710;23.280;2023-03-14T11:17:31;13.65;;;7.05;;
33952;SDS011;20231;42.710;23.280;2023-03-14T11:20:24;12.77;;;6.53;;
33952;SDS011;20231;42.710;23.280;2023-03-14T11:23:27;7.82;;;5.53;;
33952;SDS011;20231;42.710;23.280;2023-03-14T11:25:50;8.05;;;5.93;;
33952;SDS011;20231;42.710;23.280;2023-03-14T11:28:40;10.30;;;5.53;;
33952;SDS011;20231;42.710;23.280;2023-03-14T11:31:15;10.48;;;5.32;;
33952;SDS011;20231;42.710;23.280;2023-03-14T11:36:24;16.45;;;4.80;;
33952;SDS011;20231;42.710;23.280;2023-03-14T11:39:02;10.52;;;4.65;;
33952;SDS011;20231;42.710;23.280;2023-03-14T11:41:43;8.88;;;4.55;;
33952;SDS011;20231;42.710;23.280;2023-03-14T11:44:16;9.52;;;4.13;;
33952;SDS011;20231;42.710;23.280;2023-03-14T11:46:51;8.38;;;4.10;;
33952;SDS011;20231;42.710;23.280;2023-03-14T11:49:37;11.02;;;4.47;;
33952;SDS011;20231;42.710;23.280;2023-03-14T11:52:12;19.35;;;4.20;;
33952;SDS011;20231;42.710;23.280;2023-03-14T11:54:52;14.75;;;4.40;;
33952;SDS011;20231;42.710;23.280;2023-03-14T11:57:26;12.13;;;4.45;;
33952;SDS011;20231;42.710;23.280;2023-03-14T12:00:00;9.93;;;4.07;;
33952;SDS011;20231;42.710;23.280;2023-03-14T12:10:38;8.23;;;3.83;;
33952;SDS011;20231;42.710;23.280;2023-03-14T12:13:09;9.27;;;4.10;;
33952;SDS011;20231;42.710;23.280;2023-03-14T12:15:40;8.43;;;4.25;;
33952;SDS011;20231;42.710;23.280;2023-03-14T12:18:18;10.77;;;4.25;;
33952;SDS011;20231;42.710;23.280;2023-03-14T12:20:56;7.00;;;3.75;;
33952;SDS011;20231;42.710;23.280;2023-03-14T12:23:26;6.57;;;3.95;;
33952;SDS011;20231;42.710;23.280;2023-03-14T12:26:43;7.30;;;4.00;;
33952;SDS011;20231;42.710;23.280;2023-03-14T12:28:49;6.95;;;4.28;;
33952;SDS011;20231;42.710;23.280;2023-03-14T12:41:52;7.00;;;3.65;;
33952;SDS011;20231;42.710;23.280;2023-03-14T12:46:58;4.57;;;3.15;;
33952;SDS011;20231;42.710;23.280;2023-03-14T12:49:42;5.72;;;3.42;;
33952;SDS011;20231;42.710;23.280;2023-03-14T12:52:19;8.43;;;3.97;;
33952;SDS011;20231;42.710;23.280;2023-03-14T12:55:02;6.97;;;2.97;;
33952;SDS011;20231;42.710;23.280;2023-03-14T12:57:48;7.63;;;3.40;;
33952;SDS011;20231;42.710;23.280;2023-03-14T13:00:39;6.65;;;3.00;;
33952;SDS011;20231;42.710;23.280;2023-03-14T13:03:49;4.97;;;2.83;;
33952;SDS011;20231;42.710;23.280;2023-03-14T13:12:10;6.38;;;2.50;;
33952;SDS011;20231;42.710;23.280;2023-03-14T13:14:57;7.97;;;2.60;;
33952;SDS011;20231;42.710;23.280;2023-03-14T13:17:30;10.57;;;3.05;;
33952;SDS011;20231;42.710;23.280;2023-03-14T13:20:00;4.85;;;2.65;;
33952;SDS011;20231;42.710;23.280;2023-03-14T13:22:35;5.15;;;2.78;;
33952;SDS011;20231;42.710;23.280;2023-03-14T13:25:12;6.15;;;3.05;;
33952;SDS011;20231;42.710;23.280;2023-03-14T13:27:37;8.13;;;3.08;;
33952;SDS011;20231;42.710;23.280;2023-03-14T13:33:02;9.25;;;2.95;;
33952;SDS011;20231;42.710;23.280;2023-03-14T13:35:30;4.82;;;2.60;;
33952;SDS011;20231;42.710;23.280;2023-03-14T13:38:46;5.53;;;2.50;;
33952;SDS011;20231;42.710;23.280;2023-03-14T13:41:22;5.55;;;2.05;;
33952;SDS011;20231;42.710;23.280;2023-03-14T13:43:49;5.70;;;2.42;;
33952;SDS011;20231;42.710;23.280;2023-03-14T13:46:23;8.80;;;2.88;;
33952;SDS011;20231;42.710;23.280;2023-03-14T13:48:55;6.18;;;2.85;;
33952;SDS011;20231;42.710;23.280;2023-03-14T13:51:22;3.83;;;2.40;;
33952;SDS011;20231;42.710;23.280;2023-03-14T13:53:50;8.02;;;2.15;;
33952;SDS011;20231;42.710;23.280;2023-03-14T13:56:18;3.55;;;2.03;;
33952;SDS011;20231;42.710;23.280;2023-03-14T13:58:45;4.80;;;2.25;;
33952;SDS011;20231;42.710;23.280;2023-03-14T14:04:14;6.63;;;1.85;;
33952;SDS011;20231;42.710;23.280;2023-03-14T14:06:45;3.53;;;1.98;;
33952;SDS011;20231;42.710;23.280;2023-03-14T14:09:28;5.53;;;2.17;;
33952;SDS011;20231;42.710;23.280;2023-03-14T14:12:13;3.50;;;2.33;;
33952;SDS011;20231;42.710;23.280;2023-03-14T14:14:43;6.85;;;2.45;;
33952;SDS011;20231;42.710;23.280;2023-03-14T14:17:11;5.13;;;2.30;;
33952;SDS011;20231;42.710;23.280;2023-03-14T14:19:40;4.25;;;2.38;;
33952;SDS011;20231;42.710;23.280;2023-03-14T14:22:08;6.15;;;2.00;;
33952;SDS011;20231;42.710;23.280;2023-03-14T14:24:36;2.55;;;2.00;;
33952;SDS011;20231;42.710;23.280;2023-03-14T14:27:13;5.18;;;2.22;;
33952;SDS011;20231;42.710;23.280;2023-03-14T14:29:41;5.85;;;2.65;;
33952;SDS011;20231;42.710;23.280;2023-03-14T14:34:45;8.60;;;2.40;;
33952;SDS011;20231;42.710;23.280;2023-03-14T14:37:32;6.38;;;2.38;;
33952;SDS011;20231;42.710;23.280;2023-03-14T14:40:01;3.53;;;2.25;;
33952;SDS011;20231;42.710;23.280;2023-03-14T14:42:33;8.00;;;2.58;;
33952;SDS011;20231;42.710;23.280;2023-03-14T14:44:59;4.65;;;2.17;;
33952;SDS011;20231;42.710;23.280;2023-03-14T14:47:28;8.10;;;2.42;;
33952;SDS011;20231;42.710;23.280;2023-03-14T14:49:55;5.57;;;2.30;;
33952;SDS011;20231;42.710;23.280;2023-03-14T14:55:12;5.72;;;2.47;;
33952;SDS011;20231;42.710;23.280;2023-03-14T14:57:48;2.85;;;1.95;;
33952;SDS011;20231;42.710;23.280;2023-03-14T15:00:19;3.17;;;2.10;;
33952;SDS011;20231;42.710;23.280;2023-03-14T15:02:47;4.05;;;2.33;;
33952;SDS011;20231;42.710;23.280;2023-03-14T15:05:15;3.38;;;2.20;;
33952;SDS011;20231;42.710;23.280;2023-03-14T15:07:48;3.20;;;2.10;;
33952;SDS011;20231;42.710;23.280;2023-03-14T15:10:18;7.68;;;2.47;;
33952;SDS011;20231;42.710;23.280;2023-03-14T15:12:45;6.20;;;2.20;;
33952;SDS011;20231;42.710;23.280;2023-03-14T15:15:13;8.98;;;2.53;;
33952;SDS011;20231;42.710;23.280;2023-03-14T15:17:39;7.55;;;2.85;;
33952;SDS011;20231;42.710;23.280;2023-03-14T15:20:05;6.95;;;2.08;;
33952;SDS011;20231;42.710;23.280;2023-03-14T15:22:34;5.30;;;2.25;;
33952;SDS011;20231;42.710;23.280;2023-03-14T15:25:00;5.70;;;3.00;;
33952;SDS011;20231;42.710;23.280;2023-03-14T15:27:25;5.20;;;2.50;;
33952;SDS011;20231;42.710;23.280;2023-03-14T15:29:53;4.68;;;3.08;;
33952;SDS011;20231;42.710;23.280;2023-03-14T15:32:19;4.95;;;3.17;;
33952;SDS011;20231;42.710;23.280;2023-03-14T15:34:44;6.70;;;3.08;;
33952;SDS011;20231;42.710;23.280;2023-03-14T15:37:13;4.90;;;2.92;;
33952;SDS011;20231;42.710;23.280;2023-03-14T15:39:41;6.10;;;2.67;;
33952;SDS011;20231;42.710;23.280;2023-03-14T15:42:12;8.73;;;2.80;;
33952;SDS011;20231;42.710;23.280;2023-03-14T15:44:37;6.97;;;2.72;;
33952;SDS011;20231;42.710;23.280;2023-03-14T15:47:08;7.13;;;3.05;;